createdAt,value
2023-09-29T00:00:15.485Z,101480.94
2023-09-29T00:05:12.666Z,101494.75
2023-09-29T00:10:10.749Z,101521.84
2023-09-29T00:15:08.238Z,101521.34
2023-09-29T00:20:12.894Z,101519.63
2023-09-29T00:25:09.850Z,101517.09
2023-09-29T00:30:10.023Z,101509.41
2023-09-29T00:35:18.472Z,101531.00
2023-09-29T00:40:16.344Z,101538.53
2023-09-29T00:45:16.610Z,101486.44
2023-09-29T00:50:15.003Z,101461.78
2023-09-29T00:55:15.022Z,101528.22
2023-09-29T01:00:21.721Z,101517.13
2023-09-29T01:05:19.164Z,101528.50
2023-09-29T01:10:15.924Z,101443.28
2023-09-29T01:15:14.811Z,101539.53
2023-09-29T01:20:25.552Z,101518.41
2023-09-29T01:25:23.463Z,101545.56
2023-09-29T01:30:20.401Z,101537.31
2023-09-29T01:35:18.005Z,101508.25
2023-09-29T01:40:15.744Z,101559.59
2023-09-29T01:45:14.344Z,101520.78
2023-09-29T01:50:12.169Z,101547.56
2023-09-29T01:55:12.823Z,101530.06
2023-09-29T02:00:12.062Z,101515.34
2023-09-29T02:05:12.162Z,101524.56
2023-09-29T02:10:09.877Z,101544.22
2023-09-29T02:15:07.591Z,101553.25
2023-09-29T02:20:12.628Z,101513.63
2023-09-29T02:25:11.754Z,101562.44
2023-09-29T02:30:10.149Z,101552.56
2023-09-29T02:35:07.675Z,101545.78
2023-09-29T02:40:07.299Z,101523.38
2023-09-29T02:45:07.276Z,101514.75
2023-09-29T02:50:05.028Z,101579.75
2023-09-29T02:55:05.093Z,101499.25
2023-09-29T03:00:07.292Z,101558.94
2023-09-29T03:05:07.603Z,101578.72
2023-09-29T03:10:11.058Z,101525.44
2023-09-29T03:15:10.540Z,101541.84
2023-09-29T03:20:11.485Z,101526.84
2023-09-29T03:25:10.509Z,101531.72
2023-09-29T03:30:09.460Z,101528.31
2023-09-29T03:35:09.551Z,101519.91
2023-09-29T03:40:09.233Z,101577.38
2023-09-29T03:45:07.238Z,101587.81
2023-09-29T03:50:10.797Z,101593.28
2023-09-29T03:55:10.328Z,101577.00
2023-09-29T04:00:12.571Z,101516.47
2023-09-29T04:05:10.251Z,101596.03
2023-09-29T04:10:09.214Z,101599.53
2023-09-29T04:15:08.352Z,101551.88
2023-09-29T04:20:06.999Z,101597.75
2023-09-29T04:25:09.400Z,101573.91
2023-09-29T04:30:08.827Z,101538.03
2023-09-29T04:35:06.463Z,101542.81
2023-09-29T04:40:05.223Z,101577.91
2023-09-29T04:45:02.301Z,101549.59
2023-09-29T04:49:59.591Z,101578.09
2023-09-29T04:54:56.465Z,101608.88
2023-09-29T04:59:54.197Z,101617.16
2023-09-29T05:04:51.120Z,101617.44
2023-09-29T05:09:48.102Z,101599.25
2023-09-29T05:14:45.024Z,101512.66
2023-09-29T05:19:42.815Z,101610.19
2023-09-29T05:24:39.687Z,101631.25
2023-09-29T05:29:37.658Z,101633.94
2023-09-29T05:34:37.294Z,101598.03
2023-09-29T05:39:36.892Z,101612.34
2023-09-29T05:44:34.116Z,101596.59
2023-09-29T05:49:33.067Z,101633.03
2023-09-29T05:54:30.052Z,101637.31
2023-09-29T05:59:27.676Z,101603.41
2023-09-29T06:04:24.554Z,101619.22
2023-09-29T06:09:22.311Z,101608.00
2023-09-29T06:14:20.369Z,101658.13
2023-09-29T06:19:18.241Z,101620.69
2023-09-29T06:24:15.146Z,101627.81
2023-09-29T06:29:12.727Z,101667.53
2023-09-29T06:34:10.456Z,101655.25
2023-09-29T06:39:09.550Z,101635.59
2023-09-29T06:44:07.040Z,101557.53
2023-09-29T06:49:08.474Z,101645.69
2023-09-29T06:54:06.022Z,101643.09
2023-09-29T06:59:03.937Z,101658.69
2023-09-29T07:04:03.290Z,101653.69
2023-09-29T07:09:04.347Z,101624.50
2023-09-29T07:14:01.505Z,101647.13
2023-09-29T07:19:02.463Z,101626.38
2023-09-29T07:24:01.163Z,101596.56
2023-09-29T08:53:00.461Z,101638.56
2023-09-29T08:57:57.580Z,101579.56
2023-09-29T09:02:58.819Z,101586.09
2023-09-29T09:07:59.653Z,101627.78
2023-09-29T09:12:56.716Z,101594.31
2023-09-29T09:17:54.438Z,101601.84
2023-09-29T09:22:59.331Z,101612.13
2023-09-29T09:27:56.337Z,101607.28
2023-09-29T09:32:53.385Z,101573.38
2023-09-29T09:37:51.763Z,101585.56
2023-09-29T09:43:03.442Z,101524.06
2023-09-29T09:48:02.014Z,101596.25
2023-09-29T09:53:02.886Z,101525.94
2023-09-29T09:58:02.433Z,101595.31
2023-09-29T10:03:03.826Z,101595.34
2023-09-29T10:08:08.746Z,101518.13
2023-09-29T10:13:10.790Z,101560.06
2023-09-29T10:18:18.422Z,101497.72
2023-09-29T10:23:17.300Z,101558.56
2023-09-29T10:28:17.975Z,101538.94
2023-09-29T10:33:18.032Z,101500.00
2023-09-29T10:38:25.319Z,101540.25
2023-09-29T10:43:24.553Z,101533.03
2023-09-29T10:48:23.904Z,101480.88
2023-09-29T10:53:22.499Z,101521.16
2023-09-29T10:58:20.728Z,101524.25
2023-09-29T11:03:21.707Z,101500.31
2023-09-29T11:08:20.916Z,101484.13
2023-09-29T11:13:19.010Z,101515.28
2023-09-29T11:18:29.348Z,101506.63
2023-09-29T11:23:28.597Z,101506.75
2023-09-29T11:28:26.811Z,101493.09
2023-09-29T11:33:25.774Z,101426.16
2023-09-29T11:38:25.245Z,101473.75
2023-09-29T11:43:22.189Z,101476.94
2023-09-29T11:48:20.389Z,101464.81
2023-09-29T11:53:17.458Z,101424.03
2023-09-29T11:58:15.835Z,101413.94
2023-09-29T12:03:17.369Z,101433.53
2023-09-29T12:08:14.384Z,101420.84
2023-09-29T12:13:14.511Z,101422.25
2023-09-29T12:18:13.742Z,101449.25
2023-09-29T12:23:11.260Z,101398.75
2023-09-29T12:28:08.215Z,101406.53
2023-09-29T12:33:05.525Z,101389.25
2023-09-29T12:38:03.764Z,101424.56
2023-09-29T12:43:01.846Z,101394.84
2023-09-29T12:47:59.124Z,101392.09
2023-09-29T12:52:56.249Z,101408.69
2023-09-29T12:58:16.572Z,101415.88
2023-09-29T13:03:13.580Z,101399.66
2023-09-29T13:08:11.160Z,101406.47
2023-09-29T13:13:08.213Z,101406.00
2023-09-29T13:18:06.333Z,101413.28
2023-09-29T13:23:03.290Z,101399.66
2023-09-29T13:28:00.189Z,101385.63
2023-09-29T13:32:57.284Z,101385.88
2023-09-29T13:37:55.103Z,101374.53
2023-09-29T13:42:52.518Z,101387.88
2023-09-29T13:47:49.463Z,101378.50
2023-09-29T13:52:46.437Z,101394.19
2023-09-29T13:57:44.067Z,101350.91
2023-09-29T14:02:40.924Z,101321.81
2023-09-29T14:07:37.843Z,101368.66
2023-09-29T14:12:41.774Z,101337.81
2023-09-29T14:18:11.816Z,101317.59
2023-09-29T14:23:08.819Z,101329.63
2023-09-29T14:28:26.876Z,101378.72
2023-09-29T14:33:26.735Z,101372.41
2023-09-29T14:38:23.802Z,101374.91
2023-09-29T14:43:28.959Z,101357.50
2023-09-29T14:48:28.739Z,101288.72
2023-09-29T14:53:28.191Z,101312.31
2023-09-29T14:58:25.100Z,101367.59
2023-09-29T15:03:22.225Z,101340.75
2023-09-29T15:08:20.189Z,101329.50
2023-09-29T15:13:17.323Z,101309.03
2023-09-29T15:18:14.377Z,101374.53
2023-09-29T15:23:11.356Z,101356.41
2023-09-29T15:28:10.743Z,101384.56
2023-09-29T15:33:09.340Z,101376.34
2023-09-29T15:38:08.643Z,101354.09
2023-09-29T15:43:05.603Z,101393.72
2023-09-29T15:48:03.713Z,101409.06
2023-09-29T15:53:01.085Z,101385.47
2023-09-29T15:57:58.039Z,101404.69
2023-09-29T16:02:56.119Z,101393.22
2023-09-29T16:07:53.960Z,101323.66
2023-09-29T16:12:50.901Z,101409.44
2023-09-29T16:17:48.116Z,101380.06
2023-09-29T16:22:45.075Z,101421.44
2023-09-29T16:27:42.688Z,101364.94
2023-09-29T16:32:39.554Z,101437.22
2023-09-29T16:37:36.564Z,101434.34
2023-09-29T16:42:33.440Z,101437.72
2023-09-29T16:47:31.155Z,101438.00
2023-09-29T16:52:27.956Z,101425.81
2023-09-29T16:57:27.077Z,101427.66
2023-09-29T17:02:23.985Z,101425.91
2023-09-29T17:07:21.521Z,101421.16
2023-09-29T17:12:18.577Z,101438.13
2023-09-29T17:17:15.562Z,101402.06
2023-09-29T17:22:12.977Z,101452.31
2023-09-29T17:27:10.951Z,101462.34
2023-09-29T17:32:09.602Z,101457.22
2023-09-29T17:37:06.658Z,101464.69
2023-09-29T17:42:03.807Z,101454.88
2023-09-29T17:47:03.635Z,101434.00
2023-09-29T17:52:08.715Z,101461.56
2023-09-29T17:57:08.316Z,101463.34
2023-09-29T18:02:06.645Z,101468.19
2023-09-29T18:07:05.295Z,101454.22
2023-09-29T18:12:03.213Z,101467.09
2023-09-29T18:17:01.709Z,101409.34
2023-09-29T18:22:01.732Z,101455.09
2023-09-29T18:27:00.683Z,101469.75
2023-09-29T18:31:57.521Z,101486.88
2023-09-29T18:36:54.672Z,101492.28
2023-09-29T18:41:55.123Z,101432.59
2023-09-29T18:46:52.475Z,101496.22
2023-09-29T18:51:49.670Z,101493.88
2023-09-29T18:56:47.056Z,101471.19
2023-09-29T19:01:48.762Z,101457.94
2023-09-29T19:06:46.018Z,101463.84
2023-09-29T19:11:44.779Z,101445.94
2023-09-29T19:16:42.714Z,101478.44
2023-09-29T19:21:40.455Z,101511.03
2023-09-29T19:26:37.739Z,101506.13
2023-09-29T19:31:36.378Z,101524.34
2023-09-29T19:36:34.498Z,101512.50
2023-09-29T19:41:35.497Z,101527.03
2023-09-29T19:46:34.276Z,101527.75
2023-09-29T19:51:33.259Z,101527.91
2023-09-29T19:56:33.709Z,101537.78
2023-09-29T20:01:31.327Z,101538.06
2023-09-29T20:06:28.358Z,101538.34
2023-09-29T20:11:27.629Z,101497.84
2023-09-29T20:16:24.718Z,101499.53
2023-09-29T20:21:22.555Z,101533.25
2023-09-29T20:26:19.391Z,101527.59
2023-09-29T20:31:16.308Z,101523.41
2023-09-29T20:36:13.177Z,101541.00
2023-09-29T20:41:10.948Z,101470.97
2023-09-29T20:46:11.255Z,101536.91
2023-09-29T20:51:12.400Z,101494.91
2023-09-29T20:56:12.889Z,101490.38
2023-09-29T21:01:11.394Z,101491.75
2023-09-29T21:06:08.433Z,101519.28
2023-09-29T21:11:05.322Z,101519.44
2023-09-29T21:16:06.254Z,101522.53
2023-09-29T21:21:03.355Z,101511.19
2023-09-29T21:26:00.370Z,101502.56
2023-09-29T21:30:57.423Z,101497.00
2023-09-29T21:35:55.080Z,101474.53
2023-09-29T21:40:51.872Z,101509.69
2023-09-29T21:45:55.583Z,101473.25
2023-09-29T21:50:52.784Z,101500.91
2023-09-29T21:55:50.361Z,101504.38
2023-09-29T22:00:52.675Z,101507.13
2023-09-29T22:05:52.738Z,101445.28
2023-09-29T22:10:51.544Z,101470.16
2023-09-29T22:15:52.053Z,101492.78
2023-09-29T22:20:49.045Z,101502.91
2023-09-29T22:25:45.976Z,101477.59
2023-09-29T22:30:43.573Z,101505.38
2023-09-29T22:35:40.503Z,101453.41
2023-09-29T22:40:37.545Z,101443.63
2023-09-29T22:45:34.448Z,101485.84
2023-09-29T22:50:32.625Z,101494.84
2023-09-29T22:55:30.674Z,101490.50
2023-09-29T23:00:28.721Z,101515.88
2023-09-29T23:05:25.732Z,101519.19
2023-09-29T23:10:25.010Z,101496.06
2023-09-29T23:15:23.208Z,101521.56
2023-09-29T23:20:21.337Z,101508.59
2023-09-29T23:25:18.298Z,101498.03
2023-09-29T23:30:16.613Z,101468.19
2023-09-29T23:35:14.080Z,101517.09
2023-09-29T23:40:13.441Z,101494.03
2023-09-29T23:45:10.906Z,101503.59
2023-09-29T23:50:09.423Z,101484.09
2023-09-29T23:55:07.117Z,101512.72
